createdAt,value
2023-03-08T00:00:18.765Z,77.58
2023-03-08T00:02:45.218Z,78.02
2023-03-08T00:05:11.731Z,78.06
2023-03-08T00:07:38.189Z,78.23
2023-03-08T00:10:05.125Z,78.11
2023-03-08T00:12:31.593Z,78.14
2023-03-08T00:14:58.187Z,78.14
2023-03-08T00:17:24.757Z,77.91
2023-03-08T00:19:51.646Z,78.08
2023-03-08T00:22:18.073Z,78.27
2023-03-08T00:24:44.577Z,78.65
2023-03-08T00:27:11.054Z,78.55
2023-03-08T00:29:37.582Z,78.87
2023-03-08T00:32:04.106Z,78.34
2023-03-08T00:34:30.567Z,78.50
2023-03-08T00:36:57.026Z,79.56
2023-03-08T00:39:23.455Z,79.61
2023-03-08T00:41:49.876Z,79.27
2023-03-08T00:44:16.368Z,79.23
2023-03-08T00:46:42.850Z,79.06
2023-03-08T00:49:09.742Z,79.64
2023-03-08T00:51:36.211Z,79.60
2023-03-08T00:54:02.729Z,79.21
2023-03-08T00:56:29.179Z,79.17
2023-03-08T00:58:55.637Z,79.25
2023-03-08T01:01:22.192Z,80.12
2023-03-08T01:03:48.808Z,79.48
2023-03-08T01:06:16.017Z,79.84
2023-03-08T01:08:42.741Z,79.44
2023-03-08T01:11:15.337Z,79.04
2023-03-08T01:13:41.779Z,79.05
2023-03-08T01:16:14.935Z,79.20
2023-03-08T01:18:41.361Z,78.68
2023-03-08T01:21:07.817Z,78.67
2023-03-08T01:23:34.271Z,78.01
2023-03-08T01:26:01.758Z,78.11
2023-03-08T01:28:28.613Z,78.07
2023-03-08T01:30:55.189Z,77.72
2023-03-08T01:33:21.749Z,78.31
2023-03-08T01:35:48.555Z,79.09
2023-03-08T01:38:15.052Z,79.64
2023-03-08T01:40:41.525Z,79.08
2023-03-08T01:43:17.445Z,79.11
2023-03-08T01:45:56.342Z,78.76
2023-03-08T01:48:24.204Z,78.81
2023-03-08T01:50:50.646Z,78.88
2023-03-08T01:53:17.257Z,78.43
2023-03-08T01:55:43.705Z,78.40
2023-03-08T01:58:10.657Z,78.42
2023-03-08T02:00:38.086Z,78.56
2023-03-08T02:03:05.877Z,78.79
2023-03-08T02:05:32.535Z,78.21
2023-03-08T02:07:59.053Z,78.33
2023-03-08T02:10:25.651Z,78.66
2023-03-08T02:12:52.196Z,78.05
2023-03-08T02:15:20.267Z,78.42
2023-03-08T02:17:47.096Z,79.08
2023-03-08T02:20:28.963Z,79.27
2023-03-08T02:22:55.394Z,79.56
2023-03-08T02:25:23.365Z,79.76
2023-03-08T02:27:50.619Z,79.39
2023-03-08T02:30:18.283Z,78.97
2023-03-08T02:32:44.890Z,78.72
2023-03-08T02:35:11.364Z,78.53
2023-03-08T02:37:37.828Z,78.89
2023-03-08T02:40:04.568Z,78.77
2023-03-08T02:42:31.050Z,78.42
2023-03-08T02:44:57.699Z,77.95
2023-03-08T02:47:24.139Z,78.14
2023-03-08T02:49:50.597Z,77.72
2023-03-08T02:52:17.286Z,78.04
2023-03-08T02:54:43.769Z,77.86
2023-03-08T02:57:10.419Z,78.06
2023-03-08T02:59:36.963Z,78.18
2023-03-08T03:02:06.509Z,78.36
2023-03-08T03:04:33.991Z,78.86
2023-03-08T03:07:00.892Z,78.41
2023-03-08T03:09:27.937Z,78.98
2023-03-08T03:11:54.375Z,78.55
2023-03-08T03:14:20.846Z,79.20
2023-03-08T03:16:47.578Z,78.56
2023-03-08T03:19:14.130Z,78.94
2023-03-08T03:21:41.706Z,79.35
2023-03-08T03:24:08.196Z,79.35
2023-03-08T03:26:34.760Z,78.93
2023-03-08T03:29:01.358Z,79.55
2023-03-08T03:31:28.015Z,79.62
2023-03-08T03:33:54.715Z,80.08
2023-03-08T03:36:21.777Z,79.97
2023-03-08T03:38:49.078Z,79.73
2023-03-08T03:41:16.579Z,80.00
2023-03-08T03:43:43.140Z,79.88
2023-03-08T03:46:12.360Z,80.25
2023-03-08T03:48:38.962Z,80.56
2023-03-08T03:51:13.196Z,80.16
2023-03-08T03:53:39.886Z,79.81
2023-03-08T03:56:08.023Z,80.09
2023-03-08T03:58:34.954Z,80.27
2023-03-08T04:01:01.579Z,79.90
2023-03-08T04:03:28.131Z,80.49
2023-03-08T04:05:54.811Z,81.57
2023-03-08T04:08:21.257Z,81.26
2023-03-08T04:10:47.737Z,81.35
2023-03-08T04:13:14.278Z,81.72
2023-03-08T04:15:40.909Z,82.09
2023-03-08T04:18:07.427Z,81.60
2023-03-08T04:20:33.869Z,81.85
2023-03-08T04:23:00.330Z,82.06
2023-03-08T04:25:26.750Z,82.01
2023-03-08T04:27:53.224Z,81.93
2023-03-08T04:30:19.725Z,82.81
2023-03-08T04:32:46.187Z,83.11
2023-03-08T04:35:12.751Z,83.25
2023-03-08T04:37:40.237Z,82.63
2023-03-08T04:40:09.422Z,82.01
2023-03-08T04:42:35.992Z,83.98
2023-03-08T04:45:02.510Z,83.32
2023-03-08T04:47:29.062Z,83.07
2023-03-08T04:49:55.515Z,82.67
2023-03-08T04:52:21.957Z,82.44
2023-03-08T04:54:48.429Z,81.95
2023-03-08T04:57:14.864Z,82.42
2023-03-08T04:59:43.209Z,82.39
2023-03-08T05:02:09.715Z,79.19
2023-03-08T05:04:36.239Z,76.96
2023-03-08T05:07:02.772Z,74.79
2023-03-08T05:09:29.192Z,74.83
2023-03-08T05:11:55.659Z,72.58
2023-03-08T05:14:22.166Z,70.95
2023-03-08T05:16:48.587Z,69.37
2023-03-08T05:19:15.079Z,70.32
2023-03-08T05:21:41.619Z,70.64
2023-03-08T05:24:08.069Z,69.31
2023-03-08T05:26:34.560Z,69.81
2023-03-08T05:29:03.487Z,69.38
2023-03-08T05:31:29.946Z,69.30
2023-03-08T05:33:56.379Z,68.60
2023-03-08T05:36:22.852Z,68.92
2023-03-08T05:38:52.895Z,69.05
2023-03-08T05:41:19.320Z,68.34
2023-03-08T05:43:45.765Z,68.45
2023-03-08T05:46:13.301Z,68.18
2023-03-08T05:48:39.841Z,68.81
2023-03-08T05:51:06.936Z,68.25
2023-03-08T05:53:33.464Z,67.92
2023-03-08T05:56:10.614Z,68.03
2023-03-08T05:58:37.239Z,68.34
2023-03-08T06:01:11.200Z,67.38
2023-03-08T06:03:37.856Z,67.63
2023-03-08T06:06:04.745Z,67.43
2023-03-08T06:08:31.385Z,66.65
2023-03-08T06:10:57.859Z,66.42
2023-03-08T06:13:24.344Z,66.16
2023-03-08T06:15:53.858Z,65.30
2023-03-08T06:18:20.316Z,65.53
2023-03-08T06:20:55.421Z,65.73
2023-03-08T06:23:21.849Z,66.66
2023-03-08T06:25:48.365Z,66.55
2023-03-08T06:28:14.924Z,66.28
2023-03-08T06:30:41.432Z,65.65
2023-03-08T06:33:07.951Z,65.22
2023-03-08T06:35:34.755Z,65.72
2023-03-08T06:38:01.219Z,65.76
2023-03-08T06:40:27.643Z,65.79
2023-03-08T06:42:54.222Z,65.60
2023-03-08T06:45:20.710Z,64.79
2023-03-08T06:47:47.183Z,64.82
2023-03-08T06:50:13.693Z,64.92
2023-03-08T06:52:40.256Z,65.01
2023-03-08T06:55:07.152Z,64.53
2023-03-08T06:57:33.646Z,65.11
2023-03-08T07:00:00.182Z,64.75
2023-03-08T07:02:26.657Z,64.63
2023-03-08T07:04:53.131Z,64.64
2023-03-08T07:07:19.651Z,64.82
2023-03-08T07:09:46.216Z,64.73
2023-03-08T07:12:12.696Z,64.93
2023-03-08T07:14:39.196Z,64.85
2023-03-08T07:17:05.659Z,64.53
2023-03-08T07:19:32.120Z,64.70
2023-03-08T07:21:58.600Z,64.73
2023-03-08T07:24:25.029Z,64.03
2023-03-08T07:26:51.485Z,64.30
2023-03-08T07:29:18.463Z,64.25
2023-03-08T07:31:44.948Z,64.05
2023-03-08T07:34:12.013Z,63.64
2023-03-08T07:36:40.417Z,63.63
2023-03-08T07:39:06.924Z,63.96
2023-03-08T07:41:34.759Z,63.09
2023-03-08T07:44:02.541Z,63.31
2023-03-08T07:46:29.314Z,63.13
2023-03-08T07:48:55.904Z,62.87
2023-03-08T07:51:22.566Z,61.97
2023-03-08T07:53:49.060Z,60.72
2023-03-08T07:56:15.559Z,61.62
2023-03-08T07:58:42.163Z,60.93
2023-03-08T08:01:10.109Z,60.53
2023-03-08T08:03:37.850Z,60.55
2023-03-08T08:06:05.329Z,59.90
2023-03-08T08:08:31.985Z,59.69
2023-03-08T08:10:58.557Z,60.06
2023-03-08T08:13:24.984Z,58.96
2023-03-08T08:15:58.966Z,58.45
2023-03-08T08:18:25.424Z,59.44
2023-03-08T08:20:59.226Z,58.83
2023-03-08T08:23:25.662Z,58.35
2023-03-08T08:25:52.085Z,57.68
2023-03-08T08:28:18.575Z,58.39
2023-03-08T08:30:45.029Z,57.73
2023-03-08T08:33:11.493Z,57.08
2023-03-08T08:35:43.388Z,57.93
2023-03-08T08:38:10.024Z,57.61
2023-03-08T08:40:36.973Z,56.37
2023-03-08T08:43:03.415Z,56.64
2023-03-08T08:45:29.881Z,55.90
2023-03-08T08:47:56.408Z,56.41
2023-03-08T08:50:22.827Z,56.17
2023-03-08T08:52:49.296Z,56.52
2023-03-08T08:55:15.811Z,55.67
2023-03-08T08:57:42.255Z,55.42
2023-03-08T09:00:09.963Z,54.87
2023-03-08T09:02:36.897Z,53.76
2023-03-08T09:05:03.875Z,53.63
2023-03-08T09:07:30.364Z,52.57
2023-03-08T09:09:57.301Z,53.20
2023-03-08T09:12:23.763Z,52.52
2023-03-08T09:14:50.236Z,52.93
2023-03-08T09:17:16.672Z,52.48
2023-03-08T09:19:43.129Z,52.19
2023-03-08T09:22:09.599Z,52.40
2023-03-08T09:24:36.033Z,52.09
2023-03-08T09:27:04.888Z,51.17
2023-03-08T09:29:31.323Z,51.17
2023-03-08T09:31:58.834Z,50.37
2023-03-08T09:34:25.477Z,50.94
2023-03-08T09:36:52.286Z,50.63
2023-03-08T09:39:18.749Z,50.03
2023-03-08T09:41:45.280Z,49.96
2023-03-08T09:44:11.749Z,50.81
2023-03-08T09:46:41.887Z,50.84
2023-03-08T09:49:12.636Z,50.42
2023-03-08T09:51:40.918Z,50.21
2023-03-08T09:54:10.608Z,51.10
2023-03-08T09:56:43.688Z,50.13
2023-03-08T09:59:14.685Z,50.53
2023-03-08T10:01:41.255Z,49.17
2023-03-08T10:04:10.860Z,49.85
2023-03-08T10:06:43.689Z,50.79
2023-03-08T10:09:19.449Z,50.99
2023-03-08T10:12:02.574Z,49.98
2023-03-08T10:14:34.644Z,51.42
2023-03-08T10:17:04.823Z,49.27
2023-03-08T10:19:41.277Z,50.11
2023-03-08T10:22:23.051Z,50.05
2023-03-08T10:24:52.421Z,47.53
2023-03-08T10:27:21.132Z,46.70
2023-03-08T10:29:48.403Z,48.09
2023-03-08T10:32:14.921Z,46.73
2023-03-08T10:34:41.758Z,46.67
2023-03-08T10:37:09.854Z,45.90
2023-03-08T10:39:37.282Z,46.65
2023-03-08T10:42:13.608Z,46.29
2023-03-08T10:44:52.297Z,45.82
2023-03-08T10:47:18.712Z,46.35
2023-03-08T10:49:47.288Z,46.59
2023-03-08T10:52:25.521Z,46.80
2023-03-08T10:55:24.259Z,46.04
2023-03-08T10:57:55.473Z,47.12
2023-03-08T11:00:34.359Z,47.09
2023-03-08T11:03:10.063Z,46.42
2023-03-08T11:05:36.932Z,48.01
2023-03-08T11:08:04.275Z,49.46
2023-03-08T11:10:32.355Z,50.42
2023-03-08T11:13:03.029Z,50.23
2023-03-08T11:15:31.000Z,49.83
2023-03-08T11:18:03.497Z,50.30
2023-03-08T11:20:39.252Z,49.78
2023-03-08T11:23:11.812Z,50.10
2023-03-08T11:25:44.345Z,49.85
2023-03-08T11:28:16.830Z,49.94
2023-03-08T11:30:52.420Z,49.12
2023-03-08T11:33:31.760Z,49.33
2023-03-08T11:36:16.798Z,49.26
2023-03-08T11:38:46.585Z,50.01
2023-03-08T11:41:21.137Z,49.40
2023-03-08T11:43:55.291Z,50.65
2023-03-08T11:46:40.533Z,50.64
2023-03-08T11:49:07.027Z,50.14
2023-03-08T11:51:38.557Z,48.08
2023-03-08T11:54:04.989Z,48.81
2023-03-08T11:56:31.719Z,48.02
2023-03-08T11:59:27.658Z,47.49
2023-03-08T12:02:02.621Z,46.41
2023-03-08T12:04:32.526Z,47.69
2023-03-08T12:07:02.166Z,47.71
2023-03-08T12:09:36.197Z,47.15
2023-03-08T12:12:11.523Z,45.29
2023-03-08T12:14:44.688Z,45.95
2023-03-08T12:17:18.062Z,45.15
2023-03-08T12:19:46.106Z,45.85
2023-03-08T12:22:12.505Z,43.20
2023-03-08T12:24:38.945Z,44.33
2023-03-08T12:27:12.787Z,44.96
2023-03-08T12:29:49.894Z,43.76
2023-03-08T12:32:18.034Z,42.76
2023-03-08T12:34:45.905Z,42.79
2023-03-08T12:37:25.967Z,42.45
2023-03-08T12:40:00.521Z,43.04
2023-03-08T12:42:38.227Z,41.61
2023-03-08T12:45:19.916Z,42.25
2023-03-08T12:48:17.663Z,42.60
2023-03-08T12:50:46.462Z,42.14
2023-03-08T12:53:39.185Z,41.70
2023-03-08T12:56:26.640Z,40.86
2023-03-08T12:58:56.382Z,41.93
2023-03-08T13:01:28.969Z,42.34
2023-03-08T13:03:55.802Z,40.56
2023-03-08T13:06:37.603Z,40.83
2023-03-08T13:09:18.706Z,40.19
2023-03-08T13:11:47.970Z,41.01
2023-03-08T13:14:25.314Z,40.98
2023-03-08T13:16:51.839Z,40.77
2023-03-08T13:19:23.224Z,40.99
2023-03-08T13:22:10.021Z,41.00
2023-03-08T13:24:40.982Z,40.85
2023-03-08T13:27:10.482Z,41.87
2023-03-08T13:29:36.974Z,42.27
2023-03-08T13:32:20.329Z,42.51
2023-03-08T13:35:02.981Z,42.98
2023-03-08T13:37:30.067Z,43.25
2023-03-08T13:39:57.787Z,43.19
2023-03-08T13:42:25.557Z,42.98
2023-03-08T13:44:52.495Z,43.11
2023-03-08T13:47:23.856Z,43.00
2023-03-08T13:49:52.127Z,43.39
2023-03-08T13:52:29.429Z,43.00
2023-03-08T13:54:57.638Z,43.87
2023-03-08T13:57:27.133Z,43.68
2023-03-08T13:59:55.251Z,43.84
2023-03-08T14:02:26.499Z,43.83
2023-03-08T14:04:53.741Z,43.58
2023-03-08T14:07:24.574Z,43.08
2023-03-08T14:09:51.130Z,43.06
2023-03-08T14:12:22.012Z,43.48
2023-03-08T14:14:51.490Z,43.25
2023-03-08T14:17:23.597Z,43.19
2023-03-08T14:19:55.240Z,42.65
2023-03-08T14:22:37.678Z,42.63
2023-03-08T14:25:05.830Z,42.93
2023-03-08T14:27:40.939Z,44.00
2023-03-08T14:30:12.353Z,42.58
2023-03-08T14:32:39.651Z,42.37
2023-03-08T14:35:07.929Z,42.86
2023-03-08T14:37:34.985Z,42.84
2023-03-08T14:40:24.280Z,43.01
2023-03-08T14:42:55.846Z,43.38
2023-03-08T14:45:32.560Z,43.21
2023-03-08T14:48:00.257Z,43.78
2023-03-08T14:50:26.821Z,44.04
2023-03-08T14:52:55.006Z,43.90
2023-03-08T14:55:22.049Z,44.01
2023-03-08T14:57:48.622Z,43.99
2023-03-08T15:00:15.991Z,43.81
2023-03-08T15:02:43.515Z,43.41
2023-03-08T15:05:28.041Z,43.84
2023-03-08T15:07:55.881Z,44.72
2023-03-08T15:10:25.607Z,44.93
2023-03-08T15:12:52.098Z,44.36
2023-03-08T15:15:18.642Z,44.77
2023-03-08T15:17:45.111Z,44.83
2023-03-08T15:20:12.423Z,44.72
2023-03-08T15:22:59.584Z,44.62
2023-03-08T15:25:27.512Z,44.83
2023-03-08T15:27:53.952Z,45.06
2023-03-08T15:30:21.746Z,44.57
2023-03-08T15:32:48.696Z,45.21
2023-03-08T15:35:15.531Z,45.15
2023-03-08T15:37:42.644Z,45.76
2023-03-08T15:40:17.328Z,46.54
2023-03-08T15:42:44.073Z,47.55
2023-03-08T15:45:11.934Z,48.04
2023-03-08T15:47:38.670Z,48.42
2023-03-08T15:50:06.940Z,49.08
2023-03-08T15:52:33.400Z,49.12
2023-03-08T15:54:59.848Z,49.24
2023-03-08T15:57:26.311Z,49.34
2023-03-08T15:59:52.842Z,49.99
2023-03-08T16:02:20.196Z,49.98
2023-03-08T16:04:49.106Z,50.88
2023-03-08T16:07:16.441Z,50.60
2023-03-08T16:09:43.134Z,50.90
2023-03-08T16:12:12.510Z,51.24
2023-03-08T16:14:39.037Z,50.45
2023-03-08T16:17:06.370Z,50.86
2023-03-08T16:19:33.846Z,51.04
2023-03-08T16:22:01.331Z,50.95
2023-03-08T16:24:28.016Z,51.09
2023-03-08T16:26:54.573Z,51.14
2023-03-08T16:29:21.562Z,51.40
2023-03-08T16:31:48.686Z,52.13
2023-03-08T16:34:15.818Z,52.01
2023-03-08T16:36:42.432Z,52.34
2023-03-08T16:39:09.289Z,52.59
2023-03-08T16:41:36.597Z,52.50
2023-03-08T16:44:03.493Z,53.23
2023-03-08T16:46:30.123Z,53.67
2023-03-08T16:48:57.175Z,54.18
2023-03-08T16:51:24.987Z,53.48
2023-03-08T16:53:51.690Z,53.63
2023-03-08T16:56:22.363Z,53.99
2023-03-08T16:58:48.880Z,53.79
2023-03-08T17:01:16.606Z,54.22
2023-03-08T17:03:43.264Z,53.95
2023-03-08T17:06:10.926Z,53.63
2023-03-08T17:08:37.575Z,53.92
2023-03-08T17:11:06.189Z,54.44
2023-03-08T17:13:33.091Z,54.10
2023-03-08T17:15:59.575Z,54.40
2023-03-08T17:18:26.194Z,54.19
2023-03-08T17:20:53.060Z,54.34
2023-03-08T17:23:19.898Z,54.56
2023-03-08T17:25:46.503Z,54.31
2023-03-08T17:28:12.977Z,54.92
2023-03-08T17:30:39.583Z,55.07
2023-03-08T17:33:06.031Z,54.54
2023-03-08T17:35:32.618Z,54.90
2023-03-08T17:37:59.218Z,54.96
2023-03-08T17:40:25.694Z,55.41
2023-03-08T17:42:52.233Z,54.85
2023-03-08T17:45:18.836Z,54.82
2023-03-08T17:47:45.384Z,54.62
2023-03-08T17:50:15.209Z,54.71
2023-03-08T17:52:42.029Z,55.53
2023-03-08T17:55:08.812Z,54.97
2023-03-08T17:57:36.055Z,55.41
2023-03-08T18:00:02.682Z,55.56
2023-03-08T18:02:29.179Z,55.41
2023-03-08T18:04:56.618Z,55.25
2023-03-08T18:07:24.925Z,55.26
2023-03-08T18:09:51.359Z,55.48
2023-03-08T18:12:17.818Z,56.11
2023-03-08T18:14:45.385Z,55.75
2023-03-08T18:17:12.379Z,55.66
2023-03-08T18:19:38.914Z,56.19
2023-03-08T18:22:05.730Z,56.60
2023-03-08T18:24:32.240Z,56.40
2023-03-08T18:26:58.722Z,55.87
2023-03-08T18:29:25.207Z,56.65
2023-03-08T18:31:52.966Z,56.94
2023-03-08T18:34:19.463Z,56.93
2023-03-08T18:36:45.958Z,57.25
2023-03-08T18:39:12.936Z,57.64
2023-03-08T18:41:39.738Z,57.23
2023-03-08T18:44:06.485Z,57.98
2023-03-08T18:46:33.582Z,58.22
2023-03-08T18:49:01.436Z,57.80
2023-03-08T18:51:28.521Z,58.43
2023-03-08T18:53:55.964Z,59.56
2023-03-08T18:56:23.276Z,59.55
2023-03-08T18:58:49.796Z,59.17
2023-03-08T19:01:17.211Z,60.25
2023-03-08T19:03:44.546Z,60.40
2023-03-08T19:06:11.955Z,60.31
2023-03-08T19:08:38.836Z,60.78
2023-03-08T19:11:15.829Z,61.58
2023-03-08T19:13:42.888Z,61.12
2023-03-08T19:16:26.193Z,61.90
2023-03-08T19:18:54.104Z,61.76
2023-03-08T19:21:22.625Z,62.14
2023-03-08T19:23:49.632Z,62.22
2023-03-08T19:26:47.623Z,63.12
2023-03-08T19:29:16.012Z,63.52
2023-03-08T19:31:48.752Z,64.14
2023-03-08T19:34:15.330Z,64.09
2023-03-08T19:36:43.235Z,64.21
2023-03-08T19:39:11.126Z,63.97
2023-03-08T19:41:37.641Z,65.08
2023-03-08T19:44:07.214Z,64.70
2023-03-08T19:46:34.409Z,65.08
2023-03-08T19:49:00.905Z,65.68
2023-03-08T19:51:27.428Z,65.95
2023-03-08T19:53:54.098Z,65.04
2023-03-08T19:56:20.971Z,66.60
2023-03-08T19:58:48.062Z,66.98
2023-03-08T20:01:15.899Z,67.29
2023-03-08T20:03:42.872Z,67.93
2023-03-08T20:06:09.935Z,68.08
2023-03-08T20:08:37.242Z,68.82
2023-03-08T20:11:04.532Z,68.60
2023-03-08T20:13:31.069Z,68.35
2023-03-08T20:15:58.249Z,68.08
2023-03-08T20:18:25.858Z,67.65
2023-03-08T20:20:53.278Z,68.75
2023-03-08T20:23:19.755Z,68.50
2023-03-08T20:25:46.312Z,69.65
2023-03-08T20:28:12.905Z,70.46
2023-03-08T20:30:39.463Z,70.11
2023-03-08T20:33:06.053Z,71.52
2023-03-08T20:35:32.559Z,70.95
2023-03-08T20:37:59.072Z,71.61
2023-03-08T20:40:25.525Z,70.72
2023-03-08T20:42:52.243Z,71.12
2023-03-08T20:45:18.812Z,70.73
2023-03-08T20:47:46.611Z,71.41
2023-03-08T20:50:13.072Z,71.48
2023-03-08T20:52:39.515Z,71.28
2023-03-08T20:55:06.152Z,71.72
2023-03-08T20:57:32.719Z,73.07
2023-03-08T20:59:59.186Z,73.12
2023-03-08T21:02:25.732Z,72.91
2023-03-08T21:04:52.239Z,75.62
2023-03-08T21:07:18.726Z,74.64
2023-03-08T21:09:45.206Z,74.37
2023-03-08T21:12:11.782Z,73.87
2023-03-08T21:14:38.301Z,74.10
2023-03-08T21:17:04.771Z,75.00
2023-03-08T21:19:31.238Z,73.90
2023-03-08T21:21:57.742Z,73.27
2023-03-08T21:24:24.316Z,74.99
2023-03-08T21:26:52.020Z,75.49
2023-03-08T21:29:19.722Z,75.92
2023-03-08T21:31:48.559Z,74.69
2023-03-08T21:34:15.185Z,74.71
2023-03-08T21:36:41.970Z,73.80
2023-03-08T21:39:08.490Z,73.28
2023-03-08T21:41:36.616Z,73.83
2023-03-08T21:44:04.742Z,73.15
2023-03-08T21:46:31.626Z,72.87
2023-03-08T21:48:58.230Z,72.51
2023-03-08T21:51:24.706Z,76.37
2023-03-08T21:53:51.156Z,75.08
2023-03-08T21:56:18.270Z,76.13
2023-03-08T21:58:44.762Z,77.10
2023-03-08T22:01:21.834Z,77.64
2023-03-08T22:03:48.795Z,75.63
2023-03-08T22:06:15.302Z,75.78
2023-03-08T22:08:41.757Z,76.26
2023-03-08T22:11:08.265Z,75.55
2023-03-08T22:13:35.122Z,75.42
2023-03-08T22:16:01.765Z,75.05
2023-03-08T22:18:28.290Z,75.36
2023-03-08T22:20:54.884Z,75.49
2023-03-08T22:23:21.655Z,76.32
2023-03-08T22:25:48.093Z,77.33
2023-03-08T22:28:14.580Z,80.27
2023-03-08T22:30:41.128Z,80.26
2023-03-08T22:33:08.029Z,79.39
2023-03-08T22:35:34.716Z,78.32
2023-03-08T22:38:01.333Z,77.98
2023-03-08T22:40:27.826Z,77.67
2023-03-08T22:42:54.249Z,79.88
2023-03-08T22:45:20.665Z,81.28
2023-03-08T22:47:47.135Z,80.61
2023-03-08T22:50:13.755Z,81.21
2023-03-08T22:52:40.311Z,81.34
2023-03-08T22:55:06.971Z,82.26
2023-03-08T22:57:35.627Z,83.34
2023-03-08T23:00:02.210Z,83.39
2023-03-08T23:02:30.457Z,83.81
2023-03-08T23:04:57.958Z,84.21
2023-03-08T23:07:24.426Z,84.24
2023-03-08T23:09:50.975Z,84.05
2023-03-08T23:12:17.432Z,83.55
2023-03-08T23:14:47.113Z,84.62
2023-03-08T23:17:13.590Z,83.92
2023-03-08T23:19:45.015Z,84.79
2023-03-08T23:22:12.342Z,85.83
2023-03-08T23:24:38.856Z,85.02
2023-03-08T23:27:05.749Z,85.11
2023-03-08T23:29:32.234Z,84.22
2023-03-08T23:31:58.721Z,84.31
2023-03-08T23:34:25.292Z,84.33
2023-03-08T23:36:51.781Z,84.73
2023-03-08T23:39:18.249Z,84.36
2023-03-08T23:41:45.345Z,84.16
2023-03-08T23:44:12.249Z,83.57
2023-03-08T23:46:38.728Z,82.44
2023-03-08T23:49:05.387Z,82.36
2023-03-08T23:51:32.469Z,81.70
2023-03-08T23:54:00.179Z,81.53
2023-03-08T23:56:30.034Z,81.12
2023-03-08T23:59:01.400Z,81.20
